RPLC/CRK METAR and TAF weather

Enter ICAO airport designator
Station Type Date Time Source
RPLC METAR 2018/12/15 02:00 UTC NOAA

RPLC 150200Z 34010KT 9999 FEW020 BKN300 29/20 Q1017 NOSIG RMK A3003


Station Type Date Time Source
RPLC Decoded METAR 2018/12/15 02:00 UTC NOAA

Clarkfield Pampanga International Airport, Philippines (RPLC) 15-11N 120-33E
Dec 14, 2018 - 09:00 PM EST / 2018.12.15 0200 UTC
Wind: from the NNW (340 degrees) at 12 MPH (10 KT):0
Visibility: greater than 7 mile(s):0
Sky conditions: mostly cloudy
Temperature: 84 F (29 C)
Dew Point: 68 F (20 C)
Relative Humidity: 58%
Pressure (altimeter): 30.03 in. Hg (1017 hPa)
ob: RPLC 150200Z 34010KT 9999 FEW020 BKN300 29/20 Q1017 NOSIG RMK A3003
cycle: 2

Station Type Date Time Source
RPLC TAF 2018/12/14 18:03 UTC NOAA

TAF RPLC 141700Z 1418/1524 35007KT 9999 FEW020 BKN100 TX31/1506Z TN23/1422Z
TEMPO 1418/1424 31006KT FEW020 BKN300


Example: see airport list